Time,TemperatureF,DewpointF,PressureIn,WindDirection,WindDirectionDegrees,WindSpeedMPH,WindSpeedGustMPH,Humidity,HourlyPrecipIn,Conditions,Clouds,dailyrainin,SoftwareType,DateUTC
2013-09-28 00:01:00,62.6,58.1,30.06,North,0,0.0,0.0,85,0.00,,,0.00,WUHU216HW,2013-09-28 04:01:00,
2013-09-28 00:06:00,62.5,57.9,30.06,North,0,0.0,0.0,85,0.00,,,0.00,WUHU216HW,2013-09-28 04:06:00,
2013-09-28 00:11:00,62.5,57.9,30.05,North,0,0.0,0.0,85,0.00,,,0.00,WUHU216HW,2013-09-28 04:11:00,
2013-09-28 00:16:00,62.3,57.7,30.06,North,0,0.0,0.0,85,0.00,,,0.00,WUHU216HW,2013-09-28 04:16:00,
2013-09-28 00:21:00,62.1,57.5,30.06,North,0,0.0,0.0,85,0.00,,,0.00,WUHU216HW,2013-09-28 04:21:00,
2013-09-28 00:26:00,61.9,57.7,30.06,North,0,0.0,0.0,86,0.00,,,0.00,WUHU216HW,2013-09-28 04:26:00,
2013-09-28 00:31:00,61.7,57.5,30.06,North,0,0.0,0.0,86,0.00,,,0.00,WUHU216HW,2013-09-28 04:31:00,
2013-09-28 00:36:00,61.6,57.7,30.06,North,0,0.0,0.0,87,0.00,,,0.00,WUHU216HW,2013-09-28 04:36:00,
2013-09-28 00:41:00,61.6,57.7,30.06,North,0,0.0,0.0,87,0.00,,,0.00,WUHU216HW,2013-09-28 04:41:00,
2013-09-28 00:46:00,61.7,57.9,30.06,North,0,0.0,0.0,87,0.00,,,0.00,WUHU216HW,2013-09-28 04:46:00,
2013-09-28 00:51:00,61.6,57.7,30.06,North,0,0.0,0.0,87,0.00,,,0.00,WUHU216HW,2013-09-28 04:51:00,
2013-09-28 00:56:00,61.6,57.7,30.06,North,0,0.0,0.0,87,0.00,,,0.00,WUHU216HW,2013-09-28 04:56:00,
2013-09-28 01:01:00,61.6,57.3,30.06,North,0,0.0,0.0,86,0.00,,,0.00,WUHU216HW,2013-09-28 05:01:00,
2013-09-28 01:06:00,61.6,57.7,30.06,North,0,0.0,0.0,87,0.00,,,0.00,WUHU216HW,2013-09-28 05:06:00,
2013-09-28 01:11:00,61.4,57.5,30.06,North,0,0.0,0.0,87,0.00,,,0.00,WUHU216HW,2013-09-28 05:11:00,
2013-09-28 01:16:00,61.2,57.3,30.06,North,0,0.0,0.0,87,0.00,,,0.00,WUHU216HW,2013-09-28 05:16:00,
2013-09-28 01:21:00,61.2,57.3,30.06,North,0,0.0,0.0,87,0.00,,,0.00,WUHU216HW,2013-09-28 05:21:00,
2013-09-28 01:26:00,60.8,57.0,30.06,North,0,0.0,0.0,87,0.00,,,0.00,WUHU216HW,2013-09-28 05:26:00,
2013-09-28 01:31:00,60.8,57.0,30.06,North,0,0.0,0.0,87,0.00,,,0.00,WUHU216HW,2013-09-28 05:31:00,
2013-09-28 01:36:00,60.8,57.0,30.06,North,0,0.0,0.0,87,0.00,,,0.00,WUHU216HW,2013-09-28 05:36:00,
2013-09-28 01:41:00,60.7,56.8,30.06,North,0,0.0,0.0,87,0.00,,,0.00,WUHU216HW,2013-09-28 05:41:00,
2013-09-28 01:46:00,60.5,56.6,30.06,North,0,0.0,0.0,87,0.00,,,0.00,WUHU216HW,2013-09-28 05:46:00,
2013-09-28 01:51:00,60.5,56.6,30.06,North,0,0.0,0.0,87,0.00,,,0.00,WUHU216HW,2013-09-28 05:51:00,
2013-09-28 01:56:00,60.5,56.6,30.06,North,0,0.0,0.0,87,0.00,,,0.00,WUHU216HW,2013-09-28 05:56:00,
2013-09-28 02:01:00,60.5,56.6,30.06,North,0,0.0,0.0,87,0.00,,,0.00,WUHU216HW,2013-09-28 06:01:00,
2013-09-28 02:06:00,60.3,56.4,30.06,North,0,0.0,0.0,87,0.00,,,0.00,WUHU216HW,2013-09-28 06:06:00,
2013-09-28 02:11:00,60.1,56.3,30.06,North,0,0.0,0.0,87,0.00,,,0.00,WUHU216HW,2013-09-28 06:11:00,
2013-09-28 02:16:00,59.9,56.1,30.06,North,0,0.0,0.0,87,0.00,,,0.00,WUHU216HW,2013-09-28 06:16:00,
2013-09-28 02:21:00,59.8,55.9,30.06,North,0,0.0,0.0,87,0.00,,,0.00,WUHU216HW,2013-09-28 06:21:00,
2013-09-28 02:26:00,59.8,56.3,30.06,North,0,0.0,0.0,88,0.00,,,0.00,WUHU216HW,2013-09-28 06:26:00,
2013-09-28 02:31:00,59.8,56.3,30.06,North,0,0.0,0.0,88,0.00,,,0.00,WUHU216HW,2013-09-28 06:31:00,
2013-09-28 02:36:00,59.6,56.1,30.06,North,0,0.0,0.0,88,0.00,,,0.00,WUHU216HW,2013-09-28 06:36:00,
2013-09-28 02:41:00,59.4,55.9,30.06,North,0,0.0,0.0,88,0.00,,,0.00,WUHU216HW,2013-09-28 06:41:00,
2013-09-28 02:46:00,59.4,55.9,30.06,North,0,0.0,0.0,88,0.00,,,0.00,WUHU216HW,2013-09-28 06:46:00,
2013-09-28 02:51:00,59.4,55.9,30.06,North,0,0.0,0.0,88,0.00,,,0.00,WUHU216HW,2013-09-28 06:51:00,
2013-09-28 03:00:00,59.2,55.7,30.06,North,0,0.0,0.0,88,0.00,,,0.00,WUHU216HW,2013-09-28 07:00:00,
2013-09-28 03:05:00,59.4,55.9,30.06,North,0,0.0,0.0,88,0.00,,,0.00,WUHU216HW,2013-09-28 07:05:00,
2013-09-28 03:10:00,59.4,55.9,30.06,North,0,0.0,0.0,88,0.00,,,0.00,WUHU216HW,2013-09-28 07:10:00,
2013-09-28 03:15:00,59.4,55.9,30.05,North,0,0.0,0.0,88,0.00,,,0.00,WUHU216HW,2013-09-28 07:15:00,
2013-09-28 03:20:00,59.4,55.9,30.06,North,0,0.0,0.0,88,0.00,,,0.00,WUHU216HW,2013-09-28 07:20:00,
2013-09-28 03:25:00,59.0,55.5,30.05,North,0,0.0,0.0,88,0.00,,,0.00,WUHU216HW,2013-09-28 07:25:00,
2013-09-28 03:30:00,59.0,55.5,30.05,North,0,0.0,0.0,88,0.00,,,0.00,WUHU216HW,2013-09-28 07:30:00,
2013-09-28 03:35:00,58.9,55.4,30.05,North,0,0.0,0.0,88,0.00,,,0.00,WUHU216HW,2013-09-28 07:35:00,
2013-09-28 03:40:00,58.9,55.4,30.05,North,0,0.0,0.0,88,0.00,,,0.00,WUHU216HW,2013-09-28 07:40:00,
2013-09-28 03:45:00,58.7,55.2,30.05,North,0,0.0,0.0,88,0.00,,,0.00,WUHU216HW,2013-09-28 07:45:00,
2013-09-28 03:50:00,58.7,55.2,30.05,North,0,0.0,0.0,88,0.00,,,0.00,WUHU216HW,2013-09-28 07:50:00,
2013-09-28 03:55:00,58.7,55.2,30.05,North,0,0.0,0.0,88,0.00,,,0.00,WUHU216HW,2013-09-28 07:55:00,
2013-09-28 04:00:00,58.7,55.4,30.05,North,0,0.0,0.0,89,0.00,,,0.00,WUHU216HW,2013-09-28 08:00:00,
2013-09-28 04:05:00,58.5,55.3,30.05,North,0,0.0,0.0,89,0.00,,,0.00,WUHU216HW,2013-09-28 08:05:00,
2013-09-28 04:10:00,58.5,55.3,30.06,North,0,0.0,0.0,89,0.00,,,0.00,WUHU216HW,2013-09-28 08:10:00,
2013-09-28 04:15:00,58.3,55.1,30.06,North,0,0.0,0.0,89,0.00,,,0.00,WUHU216HW,2013-09-28 08:15:00,
2013-09-28 04:20:00,58.3,55.1,30.06,North,0,0.0,0.0,89,0.00,,,0.00,WUHU216HW,2013-09-28 08:20:00,
2013-09-28 04:25:00,58.5,55.3,30.06,North,0,0.0,0.0,89,0.00,,,0.00,WUHU216HW,2013-09-28 08:25:00,
2013-09-28 04:30:00,58.5,55.3,30.06,North,0,0.0,0.0,89,0.00,,,0.00,WUHU216HW,2013-09-28 08:30:00,
2013-09-28 04:35:00,58.5,55.3,30.06,North,0,0.0,0.0,89,0.00,,,0.00,WUHU216HW,2013-09-28 08:35:00,
2013-09-28 04:40:00,58.3,54.8,30.06,North,0,0.0,0.0,88,0.00,,,0.00,WUHU216HW,2013-09-28 08:40:00,
2013-09-28 04:45:00,58.1,54.3,30.06,North,0,0.0,0.0,87,0.00,,,0.00,WUHU216HW,2013-09-28 08:45:00,
2013-09-28 04:50:00,58.1,54.3,30.06,North,0,0.0,0.0,87,0.00,,,0.00,WUHU216HW,2013-09-28 08:50:00,
2013-09-28 04:55:00,58.0,54.5,30.06,North,0,0.0,0.0,88,0.00,,,0.00,WUHU216HW,2013-09-28 08:55:00,
2013-09-28 05:00:00,58.0,54.5,30.06,North,0,0.0,0.0,88,0.00,,,0.00,WUHU216HW,2013-09-28 09:00:00,
2013-09-28 05:05:00,57.8,54.3,30.06,North,0,0.0,0.0,88,0.00,,,0.00,WUHU216HW,2013-09-28 09:05:00,
2013-09-28 05:10:00,57.6,54.1,30.06,North,0,0.0,0.0,88,0.00,,,0.00,WUHU216HW,2013-09-28 09:10:00,
2013-09-28 05:15:00,57.6,54.1,30.07,North,0,0.0,0.0,88,0.00,,,0.00,WUHU216HW,2013-09-28 09:15:00,
2013-09-28 05:20:00,57.4,53.9,30.06,North,0,0.0,0.0,88,0.00,,,0.00,WUHU216HW,2013-09-28 09:20:00,
2013-09-28 05:25:00,57.2,53.7,30.07,North,0,0.0,0.0,88,0.00,,,0.00,WUHU216HW,2013-09-28 09:25:00,
2013-09-28 05:30:00,57.2,53.7,30.07,North,0,0.0,0.0,88,0.00,,,0.00,WUHU216HW,2013-09-28 09:30:00,
2013-09-28 05:34:00,57.2,53.7,30.07,North,0,0.0,0.0,88,0.00,,,0.00,WUHU216HW,2013-09-28 09:34:00,
2013-09-28 05:39:00,57.2,54.0,30.07,North,0,0.0,0.0,89,0.00,,,0.00,WUHU216HW,2013-09-28 09:39:00,
2013-09-28 05:44:00,57.2,54.0,30.07,North,0,0.0,0.0,89,0.00,,,0.00,WUHU216HW,2013-09-28 09:44:00,
2013-09-28 05:49:00,57.1,53.8,30.07,North,0,0.0,0.0,89,0.00,,,0.00,WUHU216HW,2013-09-28 09:49:00,
2013-09-28 05:54:00,56.9,53.4,30.07,North,0,0.0,0.0,88,0.00,,,0.00,WUHU216HW,2013-09-28 09:54:00,
2013-09-28 05:59:00,56.9,53.4,30.07,North,0,0.0,0.0,88,0.00,,,0.00,WUHU216HW,2013-09-28 09:59:00,
2013-09-28 06:04:00,56.9,53.4,30.07,North,0,0.0,0.0,88,0.00,,,0.00,WUHU216HW,2013-09-28 10:04:00,
2013-09-28 06:09:00,56.7,53.2,30.07,North,0,0.0,0.0,88,0.00,,,0.00,WUHU216HW,2013-09-28 10:09:00,
2013-09-28 06:14:00,56.7,53.2,30.07,North,0,0.0,0.0,88,0.00,,,0.00,WUHU216HW,2013-09-28 10:14:00,
2013-09-28 06:19:00,56.7,53.2,30.07,North,0,0.0,0.0,88,0.00,,,0.00,WUHU216HW,2013-09-28 10:19:00,
2013-09-28 06:24:00,56.5,53.0,30.08,North,0,0.0,0.0,88,0.00,,,0.00,WUHU216HW,2013-09-28 10:24:00,
2013-09-28 06:29:00,56.5,53.3,30.08,North,0,0.0,0.0,89,0.00,,,0.00,WUHU216HW,2013-09-28 10:29:00,
2013-09-28 06:34:00,56.5,53.3,30.08,North,0,0.0,0.0,89,0.00,,,0.00,WUHU216HW,2013-09-28 10:34:00,
2013-09-28 06:39:00,56.5,53.3,30.08,North,0,0.0,0.0,89,0.00,,,0.00,WUHU216HW,2013-09-28 10:39:00,
2013-09-28 06:44:00,56.3,53.1,30.08,North,0,0.0,0.0,89,0.00,,,0.00,WUHU216HW,2013-09-28 10:44:00,
2013-09-28 06:49:00,56.3,53.1,30.08,North,0,0.0,0.0,89,0.00,,,0.00,WUHU216HW,2013-09-28 10:49:00,
2013-09-28 06:54:00,56.5,53.3,30.08,North,0,0.0,0.0,89,0.00,,,0.00,WUHU216HW,2013-09-28 10:54:00,
2013-09-28 06:59:00,56.5,53.3,30.08,North,0,0.0,0.0,89,0.00,,,0.00,WUHU216HW,2013-09-28 10:59:00,
2013-09-28 07:05:00,56.5,53.3,30.08,North,0,0.0,0.0,89,0.00,,,0.00,WUHU216HW,2013-09-28 11:05:00,
2013-09-28 07:10:00,56.2,52.9,30.09,North,0,0.0,0.0,89,0.00,,,0.00,WUHU216HW,2013-09-28 11:10:00,
2013-09-28 07:14:00,56.2,52.9,30.09,North,0,0.0,0.0,89,0.00,,,0.00,WUHU216HW,2013-09-28 11:14:00,
2013-09-28 07:19:00,56.0,52.7,30.09,North,0,0.0,0.0,89,0.00,,,0.00,WUHU216HW,2013-09-28 11:19:00,
2013-09-28 07:24:00,56.0,52.7,30.10,North,0,0.0,0.0,89,0.00,,,0.00,WUHU216HW,2013-09-28 11:24:00,
2013-09-28 07:29:00,56.0,52.7,30.10,North,0,0.0,0.0,89,0.00,,,0.00,WUHU216HW,2013-09-28 11:29:00,
2013-09-28 07:35:00,56.0,52.7,30.10,North,0,0.0,0.0,89,0.00,,,0.00,WUHU216HW,2013-09-28 11:35:00,
2013-09-28 07:56:00,55.3,52.0,30.10,North,0,0.0,0.0,89,0.00,,,0.00,WUHU216HW,2013-09-28 11:56:00,
2013-09-28 08:01:00,55.1,51.8,30.10,North,0,0.0,0.0,89,0.00,,,0.00,WUHU216HW,2013-09-28 12:01:00,
2013-09-28 08:06:00,55.3,52.4,30.11,North,0,0.0,0.0,90,0.00,,,0.00,WUHU216HW,2013-09-28 12:06:00,
2013-09-28 08:11:00,55.3,52.4,30.11,North,0,0.0,0.0,90,0.00,,,0.00,WUHU216HW,2013-09-28 12:11:00,
2013-09-28 08:16:00,55.3,52.4,30.11,North,0,0.0,0.0,90,0.00,,,0.00,WUHU216HW,2013-09-28 12:16:00,
2013-09-28 08:21:00,55.4,52.6,30.11,North,0,0.0,0.0,90,0.00,,,0.00,WUHU216HW,2013-09-28 12:21:00,
2013-09-28 08:26:00,55.3,52.4,30.11,North,0,0.0,0.0,90,0.00,,,0.00,WUHU216HW,2013-09-28 12:26:00,
2013-09-28 08:31:00,55.4,52.6,30.11,North,0,0.0,0.0,90,0.00,,,0.00,WUHU216HW,2013-09-28 12:31:00,
2013-09-28 08:36:00,55.4,52.6,30.12,North,0,0.0,0.0,90,0.00,,,0.00,WUHU216HW,2013-09-28 12:36:00,
2013-09-28 08:41:00,55.6,52.7,30.12,North,0,0.0,0.0,90,0.00,,,0.00,WUHU216HW,2013-09-28 12:41:00,
2013-09-28 08:46:00,55.6,52.7,30.12,North,0,0.0,0.0,90,0.00,,,0.00,WUHU216HW,2013-09-28 12:46:00,
2013-09-28 08:51:00,55.6,52.7,30.12,North,0,0.0,0.0,90,0.00,,,0.00,WUHU216HW,2013-09-28 12:51:00,
2013-09-28 09:00:00,56.3,53.5,30.12,North,0,0.0,0.0,90,0.00,,,0.00,WUHU216HW,2013-09-28 13:00:00,
2013-09-28 09:05:00,56.5,53.9,30.12,North,0,0.0,0.0,91,0.00,,,0.00,WUHU216HW,2013-09-28 13:05:00,
2013-09-28 09:10:00,56.9,54.3,30.12,North,0,0.0,0.0,91,0.00,,,0.00,WUHU216HW,2013-09-28 13:10:00,
2013-09-28 09:15:00,57.1,54.5,30.12,North,0,0.0,0.0,91,0.00,,,0.00,WUHU216HW,2013-09-28 13:15:00,
2013-09-28 09:20:00,57.4,54.8,30.12,North,0,0.0,0.0,91,0.00,,,0.00,WUHU216HW,2013-09-28 13:20:00,
2013-09-28 09:25:00,58.1,55.5,30.12,North,0,0.0,0.0,91,0.00,,,0.00,WUHU216HW,2013-09-28 13:25:00,
2013-09-28 09:30:00,58.7,56.3,30.12,North,0,0.0,0.0,92,0.00,,,0.00,WUHU216HW,2013-09-28 13:30:00,
2013-09-28 09:35:00,59.4,57.1,30.13,North,0,0.0,0.0,92,0.00,,,0.00,WUHU216HW,2013-09-28 13:35:00,
2013-09-28 09:40:00,59.8,57.4,30.13,North,0,0.0,0.0,92,0.00,,,0.00,WUHU216HW,2013-09-28 13:40:00,
2013-09-28 09:45:00,60.1,57.5,30.13,North,0,0.0,0.0,91,0.00,,,0.00,WUHU216HW,2013-09-28 13:45:00,
2013-09-28 09:50:00,60.5,57.9,30.13,North,0,0.0,0.0,91,0.00,,,0.00,WUHU216HW,2013-09-28 13:50:00,
2013-09-28 09:55:00,61.0,58.1,30.13,North,0,0.0,0.0,90,0.00,,,0.00,WUHU216HW,2013-09-28 13:55:00,
2013-09-28 10:00:00,61.6,58.7,30.14,North,0,0.0,0.0,90,0.00,,,0.00,WUHU216HW,2013-09-28 14:00:00,
2013-09-28 10:05:00,61.9,57.3,30.13,North,0,0.0,0.0,85,0.00,,,0.00,WUHU216HW,2013-09-28 14:05:00,
2013-09-28 10:10:00,62.5,57.9,30.13,North,0,0.0,0.0,85,0.00,,,0.00,WUHU216HW,2013-09-28 14:10:00,
2013-09-28 10:15:00,62.8,58.2,30.13,North,0,0.0,0.0,85,0.00,,,0.00,WUHU216HW,2013-09-28 14:15:00,
2013-09-28 10:20:00,63.4,58.1,30.13,North,0,0.0,0.0,83,0.00,,,0.00,WUHU216HW,2013-09-28 14:20:00,
2013-09-28 10:25:00,63.7,58.2,30.13,North,0,0.0,0.0,82,0.00,,,0.00,WUHU216HW,2013-09-28 14:25:00,
2013-09-28 10:30:00,64.1,57.8,30.13,North,0,0.0,0.0,80,0.00,,,0.00,WUHU216HW,2013-09-28 14:30:00,
2013-09-28 10:35:00,64.3,58.7,30.14,North,0,0.0,0.0,82,0.00,,,0.00,WUHU216HW,2013-09-28 14:35:00,
2013-09-28 10:40:00,64.6,58.3,30.14,North,0,0.0,0.0,80,0.00,,,0.00,WUHU216HW,2013-09-28 14:40:00,
2013-09-28 10:45:00,65.0,58.7,30.14,North,0,0.0,0.0,80,0.00,,,0.00,WUHU216HW,2013-09-28 14:45:00,
2013-09-28 10:50:00,65.5,58.9,30.14,North,0,0.0,0.0,79,0.00,,,0.00,WUHU216HW,2013-09-28 14:50:00,
2013-09-28 10:55:00,65.9,59.2,30.14,North,0,0.0,0.0,79,0.00,,,0.00,WUHU216HW,2013-09-28 14:55:00,
2013-09-28 11:00:00,66.2,58.8,30.13,North,0,0.0,0.0,77,0.00,,,0.00,WUHU216HW,2013-09-28 15:00:00,
2013-09-28 11:05:00,66.6,59.6,30.14,North,0,0.0,0.0,78,0.00,,,0.00,WUHU216HW,2013-09-28 15:05:00,
2013-09-28 11:10:00,66.6,58.8,30.14,North,0,0.0,0.0,76,0.00,,,0.00,WUHU216HW,2013-09-28 15:10:00,
2013-09-28 11:15:00,67.0,58.8,30.13,North,0,0.0,0.0,75,0.00,,,0.00,WUHU216HW,2013-09-28 15:15:00,
2013-09-28 11:20:00,67.5,59.0,30.14,North,0,0.0,0.0,74,0.00,,,0.00,WUHU216HW,2013-09-28 15:20:00,
2013-09-28 11:25:00,68.2,58.5,30.13,North,0,0.0,0.0,71,0.00,,,0.00,WUHU216HW,2013-09-28 15:25:00,
2013-09-28 11:30:00,68.4,58.7,30.14,North,0,0.0,0.0,71,0.00,,,0.00,WUHU216HW,2013-09-28 15:30:00,
2013-09-28 11:35:00,68.8,60.1,30.14,North,0,0.0,0.0,74,0.00,,,0.00,WUHU216HW,2013-09-28 15:35:00,
2013-09-28 11:40:00,69.1,58.5,30.13,North,0,0.0,0.0,69,0.00,,,0.00,WUHU216HW,2013-09-28 15:40:00,
2013-09-28 11:45:00,69.5,58.9,30.13,North,0,0.0,0.0,69,0.00,,,0.00,WUHU216HW,2013-09-28 15:45:00,
2013-09-28 11:50:00,70.2,59.9,30.13,North,0,0.0,0.0,70,0.00,,,0.00,WUHU216HW,2013-09-28 15:50:00,
2013-09-28 11:55:00,70.6,59.9,30.13,North,0,0.0,0.0,69,0.00,,,0.00,WUHU216HW,2013-09-28 15:55:00,
2013-09-28 12:00:00,71.6,60.9,30.12,North,0,0.0,0.0,69,0.00,,,0.00,WUHU216HW,2013-09-28 16:00:00,
2013-09-28 12:05:00,71.6,59.7,30.13,North,0,0.0,0.0,66,0.00,,,0.00,WUHU216HW,2013-09-28 16:05:00,
2013-09-28 12:10:00,71.8,61.1,30.13,North,0,0.0,0.0,69,0.00,,,0.00,WUHU216HW,2013-09-28 16:10:00,
2013-09-28 12:15:00,71.6,59.7,30.13,North,0,0.0,0.0,66,0.00,,,0.00,WUHU216HW,2013-09-28 16:15:00,
2013-09-28 12:20:00,72.4,59.5,30.13,North,0,0.0,0.0,64,0.00,,,0.00,WUHU216HW,2013-09-28 16:20:00,
2013-09-28 12:25:00,72.7,59.0,30.13,North,0,0.0,0.0,62,0.00,,,0.00,WUHU216HW,2013-09-28 16:25:00,
2013-09-28 12:30:00,73.3,60.8,30.13,North,0,0.0,0.0,65,0.00,,,0.00,WUHU216HW,2013-09-28 16:30:00,
2013-09-28 12:35:00,74.0,60.1,30.13,North,0,0.0,0.0,62,0.00,,,0.00,WUHU216HW,2013-09-28 16:35:00,
2013-09-28 12:40:00,74.0,61.0,30.13,North,0,0.0,0.0,64,0.00,,,0.00,WUHU216HW,2013-09-28 16:40:00,
2013-09-28 12:45:00,74.5,60.7,30.13,North,0,0.0,0.0,62,0.00,,,0.00,WUHU216HW,2013-09-28 16:45:00,
2013-09-28 12:50:00,74.0,58.2,30.13,North,0,0.0,0.0,58,0.00,,,0.00,WUHU216HW,2013-09-28 16:50:00,
2013-09-28 12:55:00,73.1,60.1,30.12,North,0,0.0,0.0,64,0.00,,,0.00,WUHU216HW,2013-09-28 16:55:00,
2013-09-28 13:00:00,72.9,60.4,30.12,North,0,0.0,0.0,65,0.00,,,0.00,WUHU216HW,2013-09-28 17:00:00,
2013-09-28 13:05:00,72.5,60.0,30.12,North,0,0.0,0.0,65,0.00,,,0.00,WUHU216HW,2013-09-28 17:05:00,
2013-09-28 13:10:00,72.4,60.3,30.12,North,0,0.0,0.0,66,0.00,,,0.00,WUHU216HW,2013-09-28 17:10:00,
2013-09-28 13:15:00,73.1,60.6,30.12,North,0,0.0,0.0,65,0.00,,,0.00,WUHU216HW,2013-09-28 17:15:00,
2013-09-28 13:20:00,73.4,58.7,30.12,North,0,0.0,0.0,60,0.00,,,0.00,WUHU216HW,2013-09-28 17:20:00,
2013-09-28 13:25:00,73.8,59.0,30.12,North,0,0.0,0.0,60,0.00,,,0.00,WUHU216HW,2013-09-28 17:25:00,
2013-09-28 13:30:00,73.4,59.6,30.11,North,0,0.0,0.0,62,0.00,,,0.00,WUHU216HW,2013-09-28 17:30:00,
2013-09-28 13:35:00,73.1,59.7,30.11,North,0,0.0,0.0,63,0.00,,,0.00,WUHU216HW,2013-09-28 17:35:00,
2013-09-28 13:40:00,73.1,60.1,30.11,North,0,0.0,0.0,64,0.00,,,0.00,WUHU216HW,2013-09-28 17:40:00,
2013-09-28 13:45:00,72.5,59.7,30.10,North,0,0.0,0.0,64,0.00,,,0.00,WUHU216HW,2013-09-28 17:45:00,
2013-09-28 13:50:00,73.4,60.0,30.10,North,0,0.0,0.0,63,0.00,,,0.00,WUHU216HW,2013-09-28 17:50:00,
2013-09-28 13:55:00,74.7,60.9,30.10,North,0,0.0,0.0,62,0.00,,,0.00,WUHU216HW,2013-09-28 17:55:00,
2013-09-28 14:00:00,74.7,59.9,30.10,North,0,0.0,0.0,60,0.00,,,0.00,WUHU216HW,2013-09-28 18:00:00,
2013-09-28 14:05:00,73.6,59.8,30.09,North,0,0.0,0.0,62,0.00,,,0.00,WUHU216HW,2013-09-28 18:05:00,
2013-09-28 14:10:00,73.6,60.2,30.09,North,0,0.0,0.0,63,0.00,,,0.00,WUHU216HW,2013-09-28 18:10:00,
2013-09-28 14:15:00,73.6,59.8,30.09,North,0,0.0,0.0,62,0.00,,,0.00,WUHU216HW,2013-09-28 18:15:00,
2013-09-28 14:20:00,73.1,59.7,30.09,North,0,0.0,0.0,63,0.00,,,0.00,WUHU216HW,2013-09-28 18:20:00,
2013-09-28 14:25:00,74.2,57.4,30.09,North,0,0.0,0.0,56,0.00,,,0.00,WUHU216HW,2013-09-28 18:25:00,
2013-09-28 14:30:00,74.2,59.4,30.09,North,0,0.0,0.0,60,0.00,,,0.00,WUHU216HW,2013-09-28 18:30:00,
2013-09-28 14:35:00,74.0,60.1,30.09,North,0,0.0,0.0,62,0.00,,,0.00,WUHU216HW,2013-09-28 18:35:00,
2013-09-28 14:40:00,73.4,59.6,30.09,North,0,0.0,0.0,62,0.00,,,0.00,WUHU216HW,2013-09-28 18:40:00,
2013-09-28 14:45:00,72.9,59.9,30.08,North,0,0.0,0.0,64,0.00,,,0.00,WUHU216HW,2013-09-28 18:45:00,
2013-09-28 14:50:00,72.0,58.7,30.09,North,0,0.0,0.0,63,0.00,,,0.00,WUHU216HW,2013-09-28 18:50:00,
2013-09-28 14:55:00,70.9,58.5,30.08,North,0,0.0,0.0,65,0.00,,,0.00,WUHU216HW,2013-09-28 18:55:00,
2013-09-28 15:00:00,70.6,58.2,30.08,North,0,0.0,0.0,65,0.00,,,0.00,WUHU216HW,2013-09-28 19:00:00,
2013-09-28 15:05:00,70.2,58.2,30.08,North,0,0.0,0.0,66,0.00,,,0.00,WUHU216HW,2013-09-28 19:05:00,
2013-09-28 15:10:00,70.6,57.0,30.08,North,0,0.0,0.0,62,0.00,,,0.00,WUHU216HW,2013-09-28 19:10:00,
2013-09-28 15:15:00,71.3,58.9,30.07,North,0,0.0,0.0,65,0.00,,,0.00,WUHU216HW,2013-09-28 19:15:00,
2013-09-28 15:20:00,71.5,59.5,30.07,North,0,0.0,0.0,66,0.00,,,0.00,WUHU216HW,2013-09-28 19:20:00,
2013-09-28 15:25:00,72.2,59.3,30.07,North,0,0.0,0.0,64,0.00,,,0.00,WUHU216HW,2013-09-28 19:25:00,
2013-09-28 15:30:00,72.9,59.5,30.07,North,0,0.0,0.0,63,0.00,,,0.00,WUHU216HW,2013-09-28 19:30:00,
2013-09-28 15:35:00,73.1,59.7,30.07,North,0,0.0,0.0,63,0.00,,,0.00,WUHU216HW,2013-09-28 19:35:00,
2013-09-28 15:40:00,73.1,59.2,30.07,North,0,0.0,0.0,62,0.00,,,0.00,WUHU216HW,2013-09-28 19:40:00,
2013-09-28 15:45:00,72.7,59.0,30.06,North,0,0.0,0.0,62,0.00,,,0.00,WUHU216HW,2013-09-28 19:45:00,
2013-09-28 15:50:00,72.5,58.3,30.07,North,0,0.0,0.0,61,0.00,,,0.00,WUHU216HW,2013-09-28 19:50:00,
2013-09-28 15:55:00,73.1,59.2,30.07,North,0,0.0,0.0,62,0.00,,,0.00,WUHU216HW,2013-09-28 19:55:00,
2013-09-28 16:00:00,73.3,58.1,30.06,North,0,0.0,0.0,59,0.00,,,0.00,WUHU216HW,2013-09-28 20:00:00,
2013-09-28 16:05:00,73.4,58.1,30.06,North,0,0.0,0.0,59,0.00,,,0.00,WUHU216HW,2013-09-28 20:05:00,
2013-09-28 16:10:00,73.1,58.3,30.06,North,0,0.0,0.0,60,0.00,,,0.00,WUHU216HW,2013-09-28 20:10:00,
2013-09-28 16:15:00,72.7,58.5,30.06,North,0,0.0,0.0,61,0.00,,,0.00,WUHU216HW,2013-09-28 20:15:00,
2013-09-28 16:20:00,72.2,58.4,30.06,North,0,0.0,0.0,62,0.00,,,0.00,WUHU216HW,2013-09-28 20:20:00,
2013-09-28 16:25:00,71.6,58.0,30.06,North,0,0.0,0.0,62,0.00,,,0.00,WUHU216HW,2013-09-28 20:25:00,
2013-09-28 16:30:00,71.1,57.9,30.05,North,0,0.0,0.0,63,0.00,,,0.00,WUHU216HW,2013-09-28 20:30:00,
2013-09-28 16:35:00,70.9,58.5,30.06,North,0,0.0,0.0,65,0.00,,,0.00,WUHU216HW,2013-09-28 20:35:00,
2013-09-28 16:40:00,70.7,57.5,30.05,North,0,0.0,0.0,63,0.00,,,0.00,WUHU216HW,2013-09-28 20:40:00,
2013-09-28 16:45:00,70.9,57.7,30.05,North,0,0.0,0.0,63,0.00,,,0.00,WUHU216HW,2013-09-28 20:45:00,
2013-09-28 16:50:00,71.1,57.9,30.06,North,0,0.0,0.0,63,0.00,,,0.00,WUHU216HW,2013-09-28 20:50:00,
2013-09-28 16:55:00,70.9,57.7,30.05,North,0,0.0,0.0,63,0.00,,,0.00,WUHU216HW,2013-09-28 20:55:00,
2013-09-28 17:00:00,71.5,58.2,30.05,North,0,0.0,0.0,63,0.00,,,0.00,WUHU216HW,2013-09-28 21:00:00,
2013-09-28 17:05:00,71.3,58.4,30.05,North,0,0.0,0.0,64,0.00,,,0.00,WUHU216HW,2013-09-28 21:05:00,
2013-09-28 17:10:00,70.9,57.7,30.05,North,0,0.0,0.0,63,0.00,,,0.00,WUHU216HW,2013-09-28 21:10:00,
2013-09-28 17:15:00,70.6,57.3,30.04,North,0,0.0,0.0,63,0.00,,,0.00,WUHU216HW,2013-09-28 21:15:00,
2013-09-28 17:20:00,70.2,57.4,30.04,North,0,0.0,0.0,64,0.00,,,0.00,WUHU216HW,2013-09-28 21:20:00,
2013-09-28 17:25:00,70.4,57.6,30.04,North,0,0.0,0.0,64,0.00,,,0.00,WUHU216HW,2013-09-28 21:25:00,
2013-09-28 17:30:00,70.7,58.0,30.04,North,0,0.0,0.0,64,0.00,,,0.00,WUHU216HW,2013-09-28 21:30:00,
2013-09-28 17:35:00,70.9,57.7,30.04,North,0,0.0,0.0,63,0.00,,,0.00,WUHU216HW,2013-09-28 21:35:00,
2013-09-28 17:40:00,70.4,57.2,30.04,North,0,0.0,0.0,63,0.00,,,0.00,WUHU216HW,2013-09-28 21:40:00,
2013-09-28 17:45:00,70.2,57.4,30.04,North,0,0.0,0.0,64,0.00,,,0.00,WUHU216HW,2013-09-28 21:45:00,
2013-09-28 17:50:00,70.0,57.2,30.04,North,0,0.0,0.0,64,0.00,,,0.00,WUHU216HW,2013-09-28 21:50:00,
2013-09-28 17:55:00,69.8,57.5,30.04,North,0,0.0,0.0,65,0.00,,,0.00,WUHU216HW,2013-09-28 21:55:00,
2013-09-28 18:00:00,69.5,57.6,30.04,North,0,0.0,0.0,66,0.00,,,0.00,WUHU216HW,2013-09-28 22:00:00,
2013-09-28 18:05:00,69.3,57.9,30.04,North,0,0.0,0.0,67,0.00,,,0.00,WUHU216HW,2013-09-28 22:05:00,
2013-09-28 18:10:00,68.9,57.5,30.04,North,0,0.0,0.0,67,0.00,,,0.00,WUHU216HW,2013-09-28 22:10:00,
2013-09-28 18:16:00,68.8,58.1,30.04,North,0,0.0,0.0,69,0.00,,,0.00,WUHU216HW,2013-09-28 22:16:00,
2013-09-28 18:21:00,68.4,58.3,30.03,North,0,0.0,0.0,70,0.00,,,0.00,WUHU216HW,2013-09-28 22:21:00,
2013-09-28 18:26:00,68.0,58.0,30.03,North,0,0.0,0.0,70,0.00,,,0.00,WUHU216HW,2013-09-28 22:26:00,
2013-09-28 18:31:00,67.5,57.4,30.03,North,0,0.0,0.0,70,0.00,,,0.00,WUHU216HW,2013-09-28 22:31:00,
2013-09-28 18:36:00,67.3,58.0,30.03,North,0,0.0,0.0,72,0.00,,,0.00,WUHU216HW,2013-09-28 22:36:00,
2013-09-28 18:41:00,67.1,57.8,30.03,North,0,0.0,0.0,72,0.00,,,0.00,WUHU216HW,2013-09-28 22:41:00,
2013-09-28 18:46:00,66.8,57.4,30.03,North,0,0.0,0.0,72,0.00,,,0.00,WUHU216HW,2013-09-28 22:46:00,
2013-09-28 18:51:00,66.6,57.7,30.03,North,0,0.0,0.0,73,0.00,,,0.00,WUHU216HW,2013-09-28 22:51:00,
2013-09-28 18:56:00,66.4,57.5,30.03,North,0,0.0,0.0,73,0.00,,,0.00,WUHU216HW,2013-09-28 22:56:00,
2013-09-28 19:01:00,66.1,57.2,30.03,North,0,0.0,0.0,73,0.00,,,0.00,WUHU216HW,2013-09-28 23:01:00,
2013-09-28 19:06:00,65.9,57.0,30.03,North,0,0.0,0.0,73,0.00,,,0.00,WUHU216HW,2013-09-28 23:06:00,
2013-09-28 19:11:00,65.5,56.6,30.03,North,0,0.0,0.0,73,0.00,,,0.00,WUHU216HW,2013-09-28 23:11:00,
2013-09-28 19:16:00,65.3,56.8,30.04,North,0,0.0,0.0,74,0.00,,,0.00,WUHU216HW,2013-09-28 23:16:00,
2013-09-28 19:21:00,65.2,56.7,30.04,North,0,0.0,0.0,74,0.00,,,0.00,WUHU216HW,2013-09-28 23:21:00,
2013-09-28 19:26:00,64.8,56.7,30.04,North,0,0.0,0.0,75,0.00,,,0.00,WUHU216HW,2013-09-28 23:26:00,
2013-09-28 19:31:00,64.8,56.7,30.04,North,0,0.0,0.0,75,0.00,,,0.00,WUHU216HW,2013-09-28 23:31:00,
2013-09-28 19:36:00,65.0,56.9,30.04,North,0,0.0,0.0,75,0.00,,,0.00,WUHU216HW,2013-09-28 23:36:00,
2013-09-28 19:41:00,65.2,57.1,30.04,North,0,0.0,0.0,75,0.00,,,0.00,WUHU216HW,2013-09-28 23:41:00,
2013-09-28 19:46:00,65.0,56.9,30.04,North,0,0.0,0.0,75,0.00,,,0.00,WUHU216HW,2013-09-28 23:46:00,
2013-09-28 19:51:00,64.6,56.5,30.03,North,0,0.0,0.0,75,0.00,,,0.00,WUHU216HW,2013-09-28 23:51:00,
2013-09-28 19:56:00,64.3,57.2,30.03,North,0,0.0,0.0,78,0.00,,,0.00,WUHU216HW,2013-09-28 23:56:00,
2013-09-28 20:01:00,63.9,56.5,30.04,North,0,0.0,0.0,77,0.00,,,0.00,WUHU216HW,2013-09-29 00:01:00,
2013-09-28 20:06:00,63.5,56.9,30.04,North,0,0.0,0.0,79,0.00,,,0.00,WUHU216HW,2013-09-29 00:06:00,
2013-09-28 20:11:00,63.5,56.9,30.04,North,0,0.0,0.0,79,0.00,,,0.00,WUHU216HW,2013-09-29 00:11:00,
2013-09-28 20:16:00,63.4,56.3,30.04,North,0,0.0,0.0,78,0.00,,,0.00,WUHU216HW,2013-09-29 00:16:00,
2013-09-28 20:21:00,63.4,56.3,30.04,North,0,0.0,0.0,78,0.00,,,0.00,WUHU216HW,2013-09-29 00:21:00,
2013-09-28 20:26:00,63.4,56.3,30.04,North,0,0.0,0.0,78,0.00,,,0.00,WUHU216HW,2013-09-29 00:26:00,
2013-09-28 20:31:00,63.4,56.7,30.04,North,0,0.0,0.0,79,0.00,,,0.00,WUHU216HW,2013-09-29 00:31:00,
2013-09-28 20:36:00,63.4,56.7,30.05,North,0,0.0,0.0,79,0.00,,,0.00,WUHU216HW,2013-09-29 00:36:00,
2013-09-28 20:41:00,63.0,56.3,30.05,North,0,0.0,0.0,79,0.00,,,0.00,WUHU216HW,2013-09-29 00:41:00,
2013-09-28 20:46:00,63.0,56.3,30.05,North,0,0.0,0.0,79,0.00,,,0.00,WUHU216HW,2013-09-29 00:46:00,
2013-09-28 20:51:00,63.0,56.3,30.05,North,0,0.0,0.0,79,0.00,,,0.00,WUHU216HW,2013-09-29 00:51:00,
2013-09-28 20:56:00,62.6,56.3,30.05,North,0,0.0,0.0,80,0.00,,,0.00,WUHU216HW,2013-09-29 00:56:00,
2013-09-28 21:01:00,62.5,55.8,30.05,North,0,0.0,0.0,79,0.00,,,0.00,WUHU216HW,2013-09-29 01:01:00,
2013-09-28 21:06:00,62.3,56.3,30.05,North,0,0.0,0.0,81,0.00,,,0.00,WUHU216HW,2013-09-29 01:06:00,
2013-09-28 21:11:00,61.9,56.1,30.05,North,0,0.0,0.0,81,0.00,,,0.00,WUHU216HW,2013-09-29 01:11:00,
2013-09-28 21:16:00,61.9,56.1,30.05,North,0,0.0,0.0,81,0.00,,,0.00,WUHU216HW,2013-09-29 01:16:00,
2013-09-28 21:21:00,61.6,55.7,30.05,North,0,0.0,0.0,81,0.00,,,0.00,WUHU216HW,2013-09-29 01:21:00,
2013-09-28 21:26:00,61.6,55.7,30.05,North,0,0.0,0.0,81,0.00,,,0.00,WUHU216HW,2013-09-29 01:26:00,
2013-09-28 21:31:00,61.6,56.1,30.05,North,0,0.0,0.0,82,0.00,,,0.00,WUHU216HW,2013-09-29 01:31:00,
2013-09-28 21:36:00,61.6,56.3,30.05,North,0,0.0,0.0,83,0.00,,,0.00,WUHU216HW,2013-09-29 01:36:00,
2013-09-28 21:41:00,61.4,56.2,30.05,North,0,0.0,0.0,83,0.00,,,0.00,WUHU216HW,2013-09-29 01:41:00,
2013-09-28 21:46:00,61.2,56.1,30.05,North,0,0.0,0.0,83,0.00,,,0.00,WUHU216HW,2013-09-29 01:46:00,
2013-09-28 21:51:00,61.2,56.1,30.05,North,0,0.0,0.0,83,0.00,,,0.00,WUHU216HW,2013-09-29 01:51:00,
2013-09-28 21:56:00,61.0,55.9,30.06,North,0,0.0,0.0,83,0.00,,,0.00,WUHU216HW,2013-09-29 01:56:00,
2013-09-28 22:01:00,61.0,55.9,30.06,North,0,0.0,0.0,83,0.00,,,0.00,WUHU216HW,2013-09-29 02:01:00,
2013-09-28 22:06:00,61.0,55.9,30.06,North,0,0.0,0.0,83,0.00,,,0.00,WUHU216HW,2013-09-29 02:06:00,
2013-09-28 22:11:00,61.0,55.9,30.06,North,0,0.0,0.0,83,0.00,,,0.00,WUHU216HW,2013-09-29 02:11:00,
2013-09-28 22:16:00,60.8,55.7,30.06,North,0,0.0,0.0,83,0.00,,,0.00,WUHU216HW,2013-09-29 02:16:00,
2013-09-28 22:21:00,60.8,55.7,30.06,North,0,0.0,0.0,83,0.00,,,0.00,WUHU216HW,2013-09-29 02:21:00,
2013-09-28 22:26:00,60.7,55.5,30.06,North,0,0.0,0.0,83,0.00,,,0.00,WUHU216HW,2013-09-29 02:26:00,
2013-09-28 22:31:00,60.5,55.4,30.06,North,0,0.0,0.0,83,0.00,,,0.00,WUHU216HW,2013-09-29 02:31:00,
2013-09-28 22:36:00,60.5,55.6,30.06,North,0,0.0,0.0,84,0.00,,,0.00,WUHU216HW,2013-09-29 02:36:00,
2013-09-28 22:41:00,60.5,55.6,30.06,North,0,0.0,0.0,84,0.00,,,0.00,WUHU216HW,2013-09-29 02:41:00,
2013-09-28 22:46:00,60.5,56.0,30.06,North,0,0.0,0.0,85,0.00,,,0.00,WUHU216HW,2013-09-29 02:46:00,
2013-09-28 22:51:00,60.5,56.0,30.06,North,0,0.0,0.0,85,0.00,,,0.00,WUHU216HW,2013-09-29 02:51:00,
2013-09-28 22:56:00,60.7,56.2,30.06,North,0,0.0,0.0,85,0.00,,,0.00,WUHU216HW,2013-09-29 02:56:00,
2013-09-28 23:01:00,60.5,56.0,30.06,North,0,0.0,0.0,85,0.00,,,0.00,WUHU216HW,2013-09-29 03:01:00,
2013-09-28 23:06:00,60.3,55.8,30.06,North,0,0.0,0.0,85,0.00,,,0.00,WUHU216HW,2013-09-29 03:06:00,
2013-09-28 23:11:00,60.5,56.4,30.06,North,0,0.0,0.0,86,0.00,,,0.00,WUHU216HW,2013-09-29 03:11:00,
2013-09-28 23:16:00,60.5,56.6,30.07,North,0,0.0,0.0,87,0.00,,,0.00,WUHU216HW,2013-09-29 03:16:00,
2013-09-28 23:21:00,60.7,56.8,30.07,North,0,0.0,0.0,87,0.00,,,0.00,WUHU216HW,2013-09-29 03:21:00,
2013-09-28 23:26:00,60.8,57.0,30.07,North,0,0.0,0.0,87,0.00,,,0.00,WUHU216HW,2013-09-29 03:26:00,
2013-09-28 23:31:00,61.0,56.9,30.07,North,0,0.0,0.0,86,0.00,,,0.00,WUHU216HW,2013-09-29 03:31:00,
2013-09-28 23:36:00,60.8,56.7,30.06,North,0,0.0,0.0,86,0.00,,,0.00,WUHU216HW,2013-09-29 03:36:00,
2013-09-28 23:41:00,60.8,57.0,30.07,North,0,0.0,0.0,87,0.00,,,0.00,WUHU216HW,2013-09-29 03:41:00,
2013-09-28 23:46:00,60.8,57.0,30.07,North,0,0.0,0.0,87,0.00,,,0.00,WUHU216HW,2013-09-29 03:46:00,
2013-09-28 23:51:00,60.8,57.0,30.07,North,0,0.0,0.0,87,0.00,,,0.00,WUHU216HW,2013-09-29 03:51:00,
2013-09-28 23:56:00,60.8,57.0,30.07,North,0,0.0,0.0,87,0.00,,,0.00,WUHU216HW,2013-09-29 03:56:00,